ADDS METAR Data INFO
IDs: Format: Raw Decoded Include TAF

Data at: 1517 UTC 23 Oct 2017

K54J 231455Z AUTO 30011G16KT 250V330 10SM SCT016 22/17 A2997 RMK AO2 T02160172
K54J 231435Z AUTO 30012G17KT 10SM SCT016 22/18 A2996 RMK AO2 T02200182
K54J 231415Z AUTO 30009KT 10SM SCT006 22/18 A2996 RMK AO2 T02160183
K54J 231355Z AUTO 30007KT 10SM OVC006 21/20 A2996 RMK AO2 T02070196
K54J 231335Z AUTO 31007KT 10SM OVC004 21/20 A2996 RMK AO2 T02050198
K54J 231315Z AUTO 31009KT 10SM OVC004 21/20 A2995 RMK AO2 T02050200
K54J 231255Z AUTO 30009KT 10SM OVC006 21/21 A2994 RMK AO2 T02110205
K54J 231235Z AUTO 29007KT 10SM OVC006 21/21 A2992 RMK AO2 T02120207
K54J 231215Z AUTO 28003KT 10SM BKN008 BKN027 OVC037 22/21 A2992 RMK AO2 T02150210
K54J 231155Z AUTO 30009KT 7SM DZ BKN005 OVC011 22/22 A2991 RMK AO2 P0003 60014 70162 T02200217 10223 20213
K54J 231135Z AUTO 19003KT 5SM -RA OVC003 22/22 A2991 RMK AO2 P0002 T02230221
K54J 231115Z AUTO 00000KT 5SM -RA BKN003 BKN008 OVC017 22/22 A2990 RMK AO2 T02220220
K54J 231055Z AUTO 18003KT 10SM BKN017 BKN025 OVC041 22/22 A2990 RMK AO2 P0002 T02220220
K54J 231035Z AUTO 17005KT 10SM BKN003 BKN014 OVC025 22/22 A2990 RMK AO2 P0002 T02210220
K54J 231015Z AUTO 16004KT 7SM RA OVC003 22/22 A2991 RMK AO2 P0001 T02200217
K54J 230955Z AUTO 18005KT 7SM OVC003 22/22 A2991 RMK AO2 P0002 T02200217
K54J 230935Z AUTO 00000KT 7SM -RA BKN005 OVC017 22/22 A2991 RMK AO2 P0002 T02200216
K54J 230915Z AUTO 20003KT 7SM -DZ SCT007 BKN017 OVC039 22/22 A2992 RMK AO2 T02170215
K54J 230855Z AUTO 17005KT 10SM DZ SCT021 BKN042 OVC065 22/22 A2992 RMK AO2 P0002 60007 T02170215
K54J 230835Z AUTO 16005KT 7SM -DZ SCT002 BKN045 OVC085 22/22 A2993 RMK AO2 P0002 T02160215
K54J 230815Z AUTO 00000KT 7SM RA BKN004 OVC007 22/21 A2994 RMK AO2 P0002 T02150212
K54J 230755Z AUTO 14003KT 10SM -DZ BKN004 OVC009 22/21 A2995 RMK AO2 T02150212
K54J 230735Z AUTO 15003KT 10SM -RA BKN004 OVC009 21/21 A2996 RMK AO2 T02140210
K54J 230715Z AUTO 15004KT 10SM -DZ BKN006 OVC013 22/21 A2997 RMK AO2 T02150211
K54J 230655Z AUTO 00000KT 10SM -DZ SCT010 BKN021 OVC055 21/21 A2997 RMK AO2 P0005 T02130210
K54J 230635Z AUTO 00000KT 10SM -RA SCT010 BKN024 OVC070 22/21 A2998 RMK AO2 P0005 T02150210
K54J 230615Z AUTO 19005KT 7SM -RA SCT008 BKN019 OVC100 21/21 A2999 RMK AO2 P0003 T02140210
K54J 230555Z AUTO 13009KT 7SM RA BKN006 BKN021 OVC039 21/21 A3000 RMK AO2 P0040 60147 T02140210 10250 20212
K54J 230535Z AUTO 17009KT 5SM +RA BKN008 BKN022 OVC038 21/21 A3002 RMK AO2 P0032 T02130208
K54J 230515Z AUTO 19008G17KT 3SM +RA SCT003 BKN025 OVC047 21/21 A3003 RMK AO2 P0021 T02130210
K54J 230455Z AUTO 23006KT 3/4SM +RA OVC003 22/22 A3003 RMK AO2 P0076 T02190215 402900176
K54J 230435Z AUTO 00000KT 2 1/2SM +RA SCT005 BKN011 OVC035 22/22 A3003 RMK AO2 P0023 T02180215
K54J 230415Z AUTO 07003KT 5SM RA SCT005 BKN014 OVC050 22/22 A3003 RMK AO2 P0003 T02200216
K54J 230355Z AUTO 00000KT 7SM -RA SCT005 BKN021 OVC070 22/22 A3003 RMK AO2 P0005 T02200216
K54J 230335Z AUTO 10004KT 10SM -RA SCT008 BKN030 OVC070 22/22 A3003 RMK AO2 P0003 T02210216
K54J 230315Z AUTO 12006KT 10SM -RA SCT010 BKN050 OVC070 22/22 A3004 RMK AO2 P0001 T02200215
K54J 230255Z AUTO 14011G15KT 7SM RA SCT007 BKN017 OVC070 22/22 A3004 RMK AO2 P0006 60023 T02200215
K54J 230235Z AUTO 13005KT 10SM RA BKN005 BKN012 OVC037 22/22 A3005 RMK AO2 P0003 T02200215
K54J 230215Z AUTO 19003KT 7SM VCTSRA BKN005 OVC008 22/22 A3005 RMK AO2 P0002 T02200215
K54J 230155Z AUTO 16007KT 10SM -RA BKN008 BKN014 OVC038 22/21 A3005 RMK AO2 LTG DSNT SE AND NW P0016 T02200213
K54J 230135Z AUTO 17009KT 7SM VCTSRA SCT010 BKN016 OVC060 22/21 A3005 RMK AO2 LTG DSNT NW P0014 T02230212
K54J 230115Z AUTO 16006KT 7SM RA BKN018 BKN035 OVC046 24/22 A3003 RMK AO2 LTG DSNT W AND NW P0003 T02380219
K54J 230055Z AUTO 13007KT 10SM RA SCT022 BKN043 OVC080 25/22 A3002 RMK AO2 LTG DSNT SW THRU NW P0001 T02460215
K54J 230035Z AUTO 13009KT 10SM -DZ SCT025 SCT060 OVC070 25/22 A3000 RMK AO2 LTG DSNT SW AND W T02470215
K54J 230015Z AUTO 13007KT 10SM VCTS SCT070 25/22 A3000 RMK AO2 LTG DSNT S T02480215
K54J 222355Z AUTO 13008KT 10SM SCT110 25/22 A3000 RMK AO2 LTG DSNT W 60001 T02500215 10290 20247
K54J 222335Z AUTO 13009KT 10SM SCT070 BKN110 25/22 A3001 RMK AO2 T02500216
K54J 222315Z AUTO 14008KT 10SM SCT070 BKN085 BKN110 25/22 A3001 RMK AO2 LTG DSNT W T02500217
K54J 222255Z AUTO 13008KT 10SM SCT070 SCT080 BKN110 25/22 A3001 RMK AO2 T02510218
K54J 222235Z AUTO 13008KT 10SM SCT075 25/22 A3000 RMK AO2 LTG DSNT W T02510218
K54J 222215Z AUTO 13004KT 10SM SCT090 SCT110 25/22 A3001 RMK AO2 LTG DSNT W T02480221
K54J 222155Z AUTO 15007G14KT 10SM SCT032 BKN090 OVC110 25/22 A3002 RMK AO2 LTG DSNT W P0001 T02510220
K54J 222135Z AUTO 14009G16KT 10SM SCT038 SCT047 BKN070 27/21 A3002 RMK AO2 T02710207
K54J 222115Z AUTO 14009KT 10SM SCT031 SCT055 BKN100 27/21 A3002 RMK AO2 LTG DSNT S T02730205
K54J 222055Z AUTO 11008G15KT 10SM SCT033 SCT042 BKN065 28/21 A3001 RMK AO2 T02760206
K54J 222035Z AUTO 15009KT 10SM SCT033 BKN050 OVC085 28/21 A3002 RMK AO2 T02750205
K54J 222015Z AUTO 12008KT 10SM SCT045 SCT055 BKN085 28/20 A3003 RMK AO2 T02790202
K54J 221955Z AUTO 13010KT 10SM SCT037 SCT046 BKN090 29/20 A3003 RMK AO2 LTG DSNT W T02850200
K54J 221935Z AUTO 14008KT 10SM SCT041 SCT065 BKN090 28/20 A3005 RMK AO2 LTG DSNT W T02780197
K54J 221915Z AUTO 13007KT 10SM SCT034 SCT044 BKN090 28/20 A3005 RMK AO2 T02830198
K54J 221855Z AUTO 11013KT 10SM SCT032 SCT041 BKN095 29/20 A3007 RMK AO2 T02890199
K54J 221835Z AUTO 15012G19KT 10SM SCT033 SCT041 BKN095 28/20 A3008 RMK AO2 T02830199
K54J 221815Z AUTO 13010G16KT 10SM SCT033 BKN040 BKN070 28/20 A3009 RMK AO2 T02750195
K54J 221755Z AUTO 14009KT 10SM SCT031 BKN036 OVC090 28/20 A3010 RMK AO2 T02780195 10280 20176
K54J 221735Z AUTO 14011KT 10SM SCT027 BKN038 OVC090 28/19 A3011 RMK AO2 T02750194
K54J 221715Z AUTO 13009G15KT 10SM BKN027 BKN033 OVC090 27/20 A3012 RMK AO2 T02740201
K54J 221655Z AUTO 13011KT 10SM BKN025 BKN030 OVC090 27/20 A3012 RMK AO2 T02670199
K54J 221635Z AUTO 15012KT 10SM SCT021 SCT029 BKN090 27/20 A3013 RMK AO2 T02700201
K54J 221615Z AUTO 11009KT 10SM BKN019 BKN026 26/20 A3013 RMK AO2 LTG DSNT S T02590201
K54J 221555Z AUTO 12009KT 10SM BKN017 OVC023 26/20 A3015 RMK AO2 T02550202
K54J 221535Z AUTO 11009KT 10SM OVC015 25/20 A3015 RMK AO2 T02450200
K54J 221515Z AUTO 12010KT 10SM BKN015 25/20 A3013 RMK AO2 T02460198
K54J 221455Z AUTO 13009KT 10SM SCT013 24/20 A3015 RMK AO2 T02390195
K54J 221435Z AUTO 10007KT 10SM SCT010 23/19 A3015 RMK AO2 T02290192
K54J 221415Z AUTO 10007KT 10SM BKN008 22/19 A3015 RMK AO2 T02190189
K54J 221355Z AUTO 10006KT 10SM BKN006 21/19 A3015 RMK AO2 T02130188
K54J 221335Z AUTO 10008KT 10SM BKN006 21/19 A3015 RMK AO2 T02050185
K54J 221315Z AUTO 09008KT 10SM BKN006 20/18 A3015 RMK AO2 T01950180
K54J 221255Z AUTO 09006KT 10SM BKN006 OVC010 19/18 A3015 RMK AO2 T01860178
K54J 221235Z AUTO 08006KT 10SM BKN009 18/18 A3015 RMK AO2 LTG DSNT S AND W T01800175
K54J 221215Z AUTO 08005KT 10SM CLR 18/17 A3015 RMK AO2 T01780173
K54J 221155Z AUTO 08006KT 10SM CLR 18/17 A3014 RMK AO2 T01760171 10200 20176
K54J 221135Z AUTO 08006KT 10SM CLR 18/17 A3013 RMK AO2 T01770170
K54J 221115Z AUTO 08006KT 10SM CLR 18/17 A3013 RMK AO2 T01760168
K54J 221055Z AUTO 09004KT 10SM CLR 18/17 A3013 RMK AO2 T01770168
K54J 221035Z AUTO 09005KT 10SM CLR 18/17 A3013 RMK AO2 T01770166
K54J 221015Z AUTO 08005KT 10SM CLR 18/17 A3013 RMK AO2 T01800166
K54J 220955Z AUTO 09006KT 10SM CLR 18/17 A3012 RMK AO2 T01800166
K54J 220935Z AUTO 09006KT 10SM CLR 18/17 A3012 RMK AO2 T01800165
K54J 220915Z AUTO 09007KT 10SM CLR 18/16 A3011 RMK AO2 T01800163
K54J 220855Z AUTO 09007KT 10SM CLR 18/16 A3011 RMK AO2 T01800163
K54J 220835Z AUTO 08006KT 10SM CLR 18/16 A3012 RMK AO2 T01800163
K54J 220815Z AUTO 07005KT 10SM CLR 18/16 A3012 RMK AO2 T01810163
K54J 220755Z AUTO 08006KT 10SM CLR 18/16 A3012 RMK AO2 T01810163
K54J 220735Z AUTO 08006KT 10SM CLR 19/16 A3013 RMK AO2 T01850163
K54J 220715Z AUTO 08005KT 10SM CLR 19/16 A3014 RMK AO2 T01860163
K54J 220655Z AUTO 09005KT 10SM CLR 19/16 A3015 RMK AO2 T01900162
K54J 220635Z AUTO 09006KT 10SM CLR 20/16 A3015 RMK AO2 T01970162
K54J 220615Z AUTO 10006KT 10SM CLR 20/16 A3015 RMK AO2 T02000161
K54J 220555Z AUTO 10007KT 10SM CLR 20/16 A3015 RMK AO2 T02000162 10231 20200
K54J 220535Z AUTO 10006KT 10SM CLR 21/16 A3016 RMK AO2 T02050163
K54J 220515Z AUTO 11007KT 10SM CLR 21/17 A3016 RMK AO2 T02050165
K54J 220455Z AUTO 10006KT 10SM CLR 21/17 A3016 RMK AO2 T02050166 402770168
K54J 220435Z AUTO 10005KT 10SM CLR 20/17 A3017 RMK AO2 T02030170
K54J 220415Z AUTO 09005KT 10SM CLR 20/17 A3017 RMK AO2 T02020173
K54J 220355Z AUTO 09006KT 10SM CLR 21/18 A3017 RMK AO2 T02050175
K54J 220335Z AUTO 08006KT 10SM CLR 21/18 A3017 RMK AO2 T02050180